Time;durP1;ratioP1;P1;durP2;ratioP2;P2;SDS_P1;SDS_P2;PMS_P1;PMS_P2;Temp;Humidity;BMP_temperature;BMP_pressure;BME280_temperature;BME280_humidity;BME280_pressure;Samples;Min_cycle;Max_cycle;Signal;HPM_P1;HPM_P2
2023/05/04 00:00:42;;;;;;;11.20;5.28;;;;;;;;;;6162005;23;20024;-92
2023/05/04 00:03:26;;;;;;;13.25;4.95;;;;;;;;;;6184238;23;20383;-91
2023/05/04 00:06:11;;;;;;;10.18;4.93;;;;;;;;;;6184548;23;20028;-90
2023/05/04 00:08:56;;;;;;;10.48;4.45;;;;;;;;;;6184498;23;20064;-91
2023/05/04 00:11:41;;;;;;;8.57;4.72;;;;;;;;;;6184542;23;20024;-89
2023/05/04 00:14:26;;;;;;;9.27;5.25;;;;;;;;;;6183938;23;20071;-89
2023/05/04 00:17:11;;;;;;;12.05;4.78;;;;;;;;;;6184425;23;20044;-91
2023/05/04 00:19:56;;;;;;;9.75;4.80;;;;;;;;;;6161822;23;20028;-89
2023/05/04 00:22:40;;;;;;;11.38;4.80;;;;;;;;;;6184659;23;20136;-92
2023/05/04 00:25:25;;;;;;;10.80;4.90;;;;;;;;;;6161710;23;20019;-91
2023/05/04 00:28:10;;;;;;;15.73;4.75;;;;;;;;;;6186303;23;20020;-91
2023/05/04 00:30:55;;;;;;;11.70;4.47;;;;;;;;;;6186335;23;20027;-91
2023/05/04 00:33:39;;;;;;;7.60;4.07;;;;;;;;;;6185688;23;20016;-91
2023/05/04 00:36:24;;;;;;;11.85;5.40;;;;;;;;;;6185459;23;20144;-90
2023/05/04 00:39:09;;;;;;;8.65;4.68;;;;;;;;;;6186325;23;20063;-92
2023/05/04 00:41:54;;;;;;;8.55;3.85;;;;;;;;;;6186143;23;20028;-91
2023/05/04 00:44:43;;;;;;;9.63;4.40;;;;;;;;;;6185660;23;20577;-92
2023/05/04 00:47:28;;;;;;;8.60;4.25;;;;;;;;;;6185659;23;20071;-90
2023/05/04 00:50:14;;;;;;;8.20;4.15;;;;;;;;;;6186127;23;20024;-91
2023/05/04 00:52:59;;;;;;;13.40;4.93;;;;;;;;;;6186093;23;20016;-91
2023/05/04 00:55:44;;;;;;;8.93;4.70;;;;;;;;;;6185699;23;20064;-91
2023/05/04 00:58:28;;;;;;;10.82;4.18;;;;;;;;;;6185362;23;20020;-91
2023/05/04 01:01:13;;;;;;;7.35;4.60;;;;;;;;;;6185901;23;20020;-90
2023/05/04 01:03:57;;;;;;;10.48;4.43;;;;;;;;;;6186011;23;20011;-92
2023/05/04 01:06:48;;;;;;;11.20;4.43;;;;;;;;;;6185568;23;20035;-91
2023/05/04 01:09:38;;;;;;;12.63;4.70;;;;;;;;;;6162978;23;20047;-91
2023/05/04 01:12:33;;;;;;;11.18;4.43;;;;;;;;;;6163079;23;20031;-87
2023/05/04 01:15:18;;;;;;;;;;;6.10;99.90;;;;;;6186319;23;20015;-91
2023/05/04 01:18:03;;;;;;;12.32;4.43;;;;;;;;;;6185776;23;19916;-92
2023/05/04 01:20:47;;;;;;;8.82;4.28;;;;;;;;;;6185393;23;20027;-92
2023/05/04 01:23:32;;;;;;;12.98;4.80;;;;;;;;;;6185348;23;20092;-91
2023/05/04 01:26:21;;;;;;;8.75;4.20;;;;;;;;;;6185671;23;20059;-92
2023/05/04 01:29:24;;;;;;;10.25;4.82;;;;;;;;;;6185714;23;20015;-91
2023/05/04 01:32:11;;;;;;;11.88;5.20;;;;;;;;;;6185693;23;20015;-91
2023/05/04 01:34:55;;;;;;;8.70;4.68;;;;;;;;;;6185638;23;20016;-91
2023/05/04 01:37:40;;;;;;;9.40;4.72;;;;;;;;;;6162238;23;20028;-90
2023/05/04 01:40:25;;;;;;;8.98;4.38;;;;;;;;;;6163085;23;20144;-87
2023/05/04 01:43:10;;;;;;;10.77;5.45;;;;;;;;;;6185493;23;20020;-91
2023/05/04 01:45:54;;;;;;;10.55;4.85;;;;;;;;;;6185680;23;20063;-91
2023/05/04 01:48:39;;;;;;;11.02;4.85;;;;;;;;;;6162806;23;20028;-92
2023/05/04 01:51:24;;;;;;;15.15;5.18;;;;;;;;;;6185432;23;20263;-91
2023/05/04 01:54:08;;;;;;;13.32;6.20;;;;;;;;;;6185314;23;20095;-92
2023/05/04 01:56:53;;;;;;;12.85;5.05;;;;;;;;;;6185153;23;20016;-91
2023/05/04 01:59:37;;;;;;;12.90;5.35;;;;;;;;;;6162619;23;20347;-90
2023/05/04 02:02:22;;;;;;;11.32;5.25;;;;;;;;;;6185318;23;20020;-90
2023/05/04 02:05:06;;;;;;;13.57;6.00;;;;;;;;;;6185380;23;20068;-90
2023/05/04 02:07:51;;;;;;;16.00;5.88;;;;;;;;;;6184925;23;20075;-92
2023/05/04 02:10:35;;;;;;;10.23;5.43;;;;;;;;;;6162549;23;20467;-91
2023/05/04 02:13:20;;;;;;;10.32;6.03;;;;;;;;;;6185376;23;20016;-91
2023/05/04 02:16:05;;;;;;;9.25;5.65;;;;;;;;;;6185151;23;20415;-91
2023/05/04 02:18:50;;;;;;;14.30;6.40;;;;;;;;;;6184841;23;20024;-90
2023/05/04 02:21:34;;;;;;;12.95;5.30;;;;;;;;;;6184542;23;20028;-89
2023/05/04 02:24:20;;;;;;;12.35;6.18;;;;;;;;;;6185110;23;20478;-92
2023/05/04 02:27:05;;;;;;;15.50;6.15;;;;;;;;;;6185172;23;20020;-91
2023/05/04 02:29:49;;;;;;;14.48;6.25;;;;;;;;;;6184586;23;20019;-90
2023/05/04 02:32:35;;;;;;;11.05;5.57;;;;;;;;;;6183957;23;20019;-87
2023/05/04 02:35:19;;;;;;;12.65;5.80;;;;;;;;;;6185033;23;20447;-91
2023/05/04 02:38:04;;;;;;;13.98;6.10;;;;;;;;;;6185441;23;20051;-91
2023/05/04 02:40:49;;;;;;;14.75;6.10;;;;;;;;;;6162086;23;20056;-86
2023/05/04 02:43:33;;;;;;;15.20;6.40;;;;;;;;;;6184852;23;20031;-87
2023/05/04 02:46:21;;;;;;;16.77;6.88;;;;;;;;;;6162539;23;20067;-88
2023/05/04 02:49:06;;;;;;;12.30;6.35;;;;;;;;;;6184614;23;20015;-87
2023/05/04 02:51:51;;;;;;;13.93;5.78;;;;;;;;;;6162032;23;20090;-87
2023/05/04 02:54:37;;;;;;;13.50;6.93;;;;;;;;;;6184512;23;20100;-87
2023/05/04 02:57:24;;;;;;;14.82;6.10;;;;;;;;;;6184739;23;20016;-87
2023/05/04 03:00:09;;;;;;;15.05;6.95;;;;;;;;;;6184564;23;20024;-87
2023/05/04 03:02:57;;;;;;;15.52;6.45;;;;;;;;;;6162128;23;20164;-87
2023/05/04 03:05:41;;;;;;;12.95;6.72;;;;;;;;;;6184272;23;20016;-87
2023/05/04 03:08:28;;;;;;;14.98;5.97;;;;;;;;;;6162362;23;20063;-87
2023/05/04 03:11:12;;;;;;;14.55;7.80;;;;;;;;;;6162306;23;20020;-87
2023/05/04 03:14:00;;;;;;;12.90;6.80;;;;;;;;;;6161904;23;20084;-87
2023/05/04 03:16:45;;;;;;;13.60;7.22;;;;;;;;;;6183935;23;20020;-87
2023/05/04 03:19:29;;;;;;;11.00;6.88;;;;;;;;;;6184558;23;20016;-87
2023/05/04 03:22:16;;;;;;;15.13;6.90;;;;;;;;;;6141626;23;20067;-87
2023/05/04 03:25:01;;;;;;;16.25;6.72;;;;;;;;;;6184224;23;20016;-88
2023/05/04 03:27:46;;;;;;;12.25;5.78;;;;;;;;;;6183915;23;20012;-87
2023/05/04 03:30:30;;;;;;;12.35;6.78;;;;;;;;;;6141546;23;20063;-87
2023/05/04 03:33:15;;;;;;;19.73;8.15;;;;;;;;;;6184516;23;20036;-86
2023/05/04 03:35:59;;;;;;;17.63;7.15;;;;;;;;;;6161324;23;20015;-87
2023/05/04 03:38:44;;;;;;;16.63;7.80;;;;;;;;;;6183903;23;20376;-87
2023/05/04 03:41:28;;;;;;;17.08;7.05;;;;;;;;;;6184311;23;20028;-87
2023/05/04 03:44:13;;;;;;;15.23;7.13;;;;;;;;;;6162083;23;20028;-87
2023/05/04 03:47:00;;;;;;;20.40;7.35;;;;;;;;;;6183859;23;20084;-87
2023/05/04 03:49:44;;;;;;;17.45;8.00;;;;;;;;;;6161724;23;20015;-86
2023/05/04 03:52:31;;;;;;;14.52;7.35;;;;;;;;;;6184293;23;20436;-87
2023/05/04 03:55:16;;;;;;;14.88;7.32;;;;;;;;;;6162090;23;20012;-87
2023/05/04 03:58:01;;;;;;;13.88;7.55;;;;;;;;;;6161678;23;20062;-87
2023/05/04 04:00:46;;;;;;;13.80;7.60;;;;;;;;;;6161945;23;20351;-85
2023/05/04 04:03:30;;;;;;;13.02;6.68;;;;;;;;;;6163990;23;20059;-87
2023/05/04 04:06:17;;;;;;;13.80;8.13;;;;;;;;;;6186470;23;20020;-88
2023/05/04 04:09:02;;;;;;;16.20;6.88;;;;;;;;;;6185944;23;20059;-87
2023/05/04 04:11:47;;;;;;;12.93;7.13;;;;;;;;;;6186383;23;20020;-87
2023/05/04 04:14:31;;;;;;;13.85;6.55;;;;;;;;;;6163837;23;20048;-87
2023/05/04 04:17:18;;;;;;;11.50;7.40;;;;;;;;;;6143557;23;20020;-87
2023/05/04 04:20:04;;;;;;;14.70;7.82;;;;;;;;;;6143149;23;20028;-88
2023/05/04 04:22:48;;;;;;;17.50;6.88;;;;;;;;;;6163859;23;20016;-87
2023/05/04 04:25:33;;;;;;;17.65;7.45;;;;;;;;;;6163736;23;20068;-88
2023/05/04 04:28:17;;;;;;;15.88;7.90;;;;;;;;;;6163836;23;20040;-87
2023/05/04 04:31:02;;;;;;;12.77;6.80;;;;;;;;;;6163315;23;20036;-87
2023/05/04 04:33:51;;;;;;;14.82;7.32;;;;;;;;;;6163634;23;20063;-88
2023/05/04 04:36:37;;;;;;;18.70;8.02;;;;;;;;;;6166288;23;20040;-87
2023/05/04 04:39:22;;;;;;;17.65;7.47;;;;;;;;;;6163723;23;20016;-87
2023/05/04 04:42:07;;;;;;;15.82;7.88;;;;;;;;;;6163269;23;20024;-87
2023/05/04 04:44:52;;;;;;;14.43;6.13;;;;;;;;;;6163729;23;20012;-87
2023/05/04 04:47:38;;;;;;;16.42;7.63;;;;;;;;;;6186292;23;20075;-89
2023/05/04 04:50:23;;;;;;;12.40;6.93;;;;;;;;;;6186399;23;20019;-88
2023/05/04 04:53:08;;;;;;;15.77;8.32;;;;;;;;;;6185774;23;20028;-87
2023/05/04 04:55:53;;;;;;;15.63;6.88;;;;;;;;;;6164104;23;20020;-87
2023/05/04 04:58:38;;;;;;;15.23;7.15;;;;;;;;;;6186168;23;20093;-88
2023/05/04 05:01:23;;;;;;;14.27;7.45;;;;;;;;;;6163693;23;20027;-88
2023/05/04 05:04:08;;;;;;;11.40;6.22;;;;;;;;;;6185391;23;20051;-88
2023/05/04 05:06:53;;;;;;;14.43;7.10;;;;;;;;;;6163494;23;20016;-88
2023/05/04 05:09:37;;;;;;;16.67;7.68;;;;;;;;;;6185736;23;20144;-88
2023/05/04 05:12:22;;;;;;;15.43;7.55;;;;;;;;;;6163086;23;20020;-87
2023/05/04 05:15:07;;;;;;;13.60;6.95;;;;;;;;;;6142233;23;20020;-87
2023/05/04 05:17:52;;;;;;;14.85;6.78;;;;;;;;;;6163544;23;20015;-87
2023/05/04 05:20:39;;;;;;;15.48;6.90;;;;;;;;;;6163339;23;20020;-87
2023/05/04 05:23:24;;;;;;;14.30;6.72;;;;;;;;;;6185876;23;20140;-88
2023/05/04 05:26:08;;;;;;;13.88;7.60;;;;;;;;;;6186080;23;20399;-89
2023/05/04 05:28:56;;;;;;;14.40;7.53;;;;;;;;;;6163641;23;20028;-89
2023/05/04 05:31:41;;;;;;;14.80;7.00;;;;;;;;;;6186079;23;20024;-87
2023/05/04 05:34:26;;;;;;;15.18;7.20;;;;;;;;;;6163244;23;20016;-86
2023/05/04 05:37:10;;;;;;;13.30;6.85;;;;;;;;;;6162644;23;20127;-88
2023/05/04 05:39:55;;;;;;;12.63;6.80;;;;;;;;;;6185628;23;20032;-87
2023/05/04 05:42:41;;;;;;;13.77;6.72;;;;;;;;;;6184644;23;20328;-88
2023/05/04 05:45:26;;;;;;;13.75;7.10;;;;;;;;;;6162170;23;20114;-89
2023/05/04 05:48:11;;;;;;;15.93;7.32;;;;;;;;;;6162452;23;20092;-87
2023/05/04 05:50:55;;;;;;;14.25;6.95;;;;;;;;;;6162987;23;20016;-88
2023/05/04 05:53:45;;;;;;;15.13;6.93;;;;;;;;;;6184937;23;20015;-87
2023/05/04 05:56:30;;;;;;;19.75;7.15;;;;;;;;;;6162651;23;20490;-87
2023/05/04 05:59:15;;;;;;;11.32;6.78;;;;;;;;;;6184731;23;20401;-86
2023/05/04 06:01:59;;;;;;;14.98;6.95;;;;;;;;;;6162774;23;20068;-87
2023/05/04 06:04:47;;;;;;;15.98;6.07;;;;;;;;;;6162842;23;20015;-87
2023/05/04 06:07:31;;;;;;;17.92;7.43;;;;;;;;;;6185471;23;20475;-86
2023/05/04 06:10:16;;;;;;;14.52;6.50;;;;;;;;;;6184175;23;20020;-87
2023/05/04 06:13:01;;;;;;;11.65;6.43;;;;;;;;;;6184653;23;20016;-91
2023/05/04 06:15:52;;;;;;;16.05;6.40;;;;;;;;;;6163378;23;20016;-88
2023/05/04 06:18:37;;;;;;;13.35;6.72;;;;;;;;;;6162983;23;20012;-89
2023/05/04 06:21:21;;;;;;;13.55;6.68;;;;;;;;;;6162361;23;20148;-89
2023/05/04 06:24:06;;;;;;;15.32;8.60;;;;;;;;;;6162088;23;20012;-88
2023/05/04 06:26:50;;;;;;;14.80;6.65;;;;;;;;;;6184939;23;20483;-90
2023/05/04 06:29:37;;;;;;;15.32;7.13;;;;;;;;;;6185039;23;20020;-88
2023/05/04 06:32:22;;;;;;;12.68;6.47;;;;;;;;;;6161915;23;20337;-87
2023/05/04 06:35:07;;;;;;;15.15;7.22;;;;;;;;;;6184799;23;20020;-89
2023/05/04 06:37:52;;;;;;;16.27;6.72;;;;;;;;;;6184532;23;20074;-89
2023/05/04 06:40:37;;;;;;;15.90;6.28;;;;;;;;;;6184958;23;20467;-89
2023/05/04 06:43:21;;;;;;;9.02;5.80;;;;;;;;;;6184594;23;20016;-89
2023/05/04 06:46:08;;;;;;;11.27;6.28;;;;;;;;;;6163026;23;20019;-89
2023/05/04 06:48:53;;;;;;;14.32;6.88;;;;;;;;;;6185204;23;20016;-89
2023/05/04 06:51:38;;;;;;;14.25;6.75;;;;;;;;;;6162804;23;20059;-89
2023/05/04 06:54:23;;;;;;;15.35;6.47;;;;;;;;;;6162208;23;20016;-89
2023/05/04 06:57:10;;;;;;;20.15;8.18;;;;;;;;;;6162445;23;20019;-89
2023/05/04 06:59:56;;;;;;;15.23;6.97;;;;;;;;;;6162570;23;20068;-89
2023/05/04 07:02:40;;;;;;;13.80;6.32;;;;;;;;;;6162408;23;20016;-89
2023/05/04 07:05:25;;;;;;;13.45;7.85;;;;;;;;;;6184470;23;20015;-90
2023/05/04 07:08:10;;;;;;;14.68;7.18;;;;;;;;;;6162947;23;20059;-90
2023/05/04 07:11:04;;;;;;;17.55;6.97;;;;;;;;;;6185182;23;20023;-85
2023/05/04 07:13:49;;;;;;;11.68;6.22;;;;;;;;;;6143613;23;20076;-89
2023/05/04 07:16:35;;;;;;;13.77;6.80;;;;;;;;;;6184194;23;20035;-89
2023/05/04 07:19:20;;;;;;;12.60;6.22;;;;;;;;;;6184405;23;20016;-89
2023/05/04 07:22:05;;;;;;;11.85;6.30;;;;;;;;;;6162504;23;20024;-89
2023/05/04 07:24:50;;;;;;;15.48;5.93;;;;;;;;;;6184711;23;20336;-89
2023/05/04 07:27:35;;;;;;;9.60;5.53;;;;;;;;;;6161881;23;20080;-89
2023/05/04 07:30:22;;;;;;;16.27;6.45;;;;;;;;;;6141054;23;20111;-89
2023/05/04 07:33:07;;;;;;;15.57;6.35;;;;;;;;;;6184806;23;20051;-89
2023/05/04 07:35:58;;;;;;;12.63;6.00;;;;;;;;;;6184581;23;20083;-89
2023/05/04 07:38:44;;;;;;;9.70;5.47;;;;;;;;;;6184589;23;20024;-89
2023/05/04 07:41:30;;;;;;;10.73;5.30;;;;;;;;;;6161660;23;20056;-89
2023/05/04 07:44:14;;;;;;;14.25;6.35;;;;;;;;;;6162196;23;20451;-89
2023/05/04 07:47:00;;;;;;;13.25;6.07;;;;;;;;;;6162420;23;20109;-89
2023/05/04 07:49:45;;;;;;;9.50;4.85;;;;;;;;;;6162442;23;20032;-90
2023/05/04 07:52:32;;;;;;;8.05;5.85;;;;;;;;;;6184154;23;20016;-90
2023/05/04 07:55:17;;;;;;;11.80;6.28;;;;;;;;;;6184778;23;20032;-90
2023/05/04 07:58:02;;;;;;;13.68;5.35;;;;;;;;;;6162287;23;20127;-89
2023/05/04 08:00:47;;;;;;;10.75;6.10;;;;;;;;;;6184838;23;20352;-89
2023/05/04 08:03:32;;;;;;;8.85;5.05;;;;;;;;;;6161741;23;20016;-88
2023/05/04 08:06:16;;;;;;;12.63;4.90;;;;;;;;;;6162448;23;20335;-90
2023/05/04 08:09:03;;;;;;;10.10;5.32;;;;;;;;;;6183646;23;20015;-90
2023/05/04 08:11:48;;;;;;;13.73;6.15;;;;;;;;;;6184478;23;20032;-88
2023/05/04 08:14:37;;;;;;;16.35;5.35;;;;;;;;;;6161554;23;20032;-89
2023/05/04 08:17:21;;;;;;;10.43;4.97;;;;;;;;;;6162075;23;20056;-88
2023/05/04 08:20:10;;;;;;;10.88;5.25;;;;;;;;;;6184347;23;20027;-90
2023/05/04 08:22:58;;;;;;;11.30;5.82;;;;;;;;;;6163095;23;20020;-90
2023/05/04 08:25:42;;;;;;;11.07;5.05;;;;;;;;;;6161609;23;20617;-90
2023/05/04 08:28:35;;;;;;;12.02;5.63;;;;;;;;;;6161509;23;20016;-88
2023/05/04 08:31:20;;;;;;;8.40;5.07;;;;;;;;;;6184306;23;20547;-88
2023/05/04 08:34:06;;;;;;;9.55;5.47;;;;;;;;;;6161665;23;20075;-88
2023/05/04 08:36:53;;;;;;;12.25;5.40;;;;;;;;;;6161906;23;20100;-89
2023/05/04 08:39:38;;;;;;;8.52;4.70;;;;;;;;;;6183834;23;20088;-89
2023/05/04 08:42:29;;;;;;;11.13;5.00;;;;;;;;;;6184662;23;20356;-89
2023/05/04 08:45:14;;;;;;;9.50;4.93;;;;;;;;;;6161937;23;20063;-89
2023/05/04 08:47:59;;;;;;;11.13;5.35;;;;;;;;;;6185207;23;20051;-89
2023/05/04 08:50:44;;;;;;;10.52;5.30;;;;;;;;;;6163499;23;20024;-89
2023/05/04 08:53:51;;;;;;;7.82;4.15;;;;;;;;;;6163484;23;20015;-88
2023/05/04 08:56:35;;;;;;;13.90;5.50;;;;;;;;;;6185596;23;20048;-88
2023/05/04 08:59:23;;;;;;;8.52;4.55;;;;;;;;;;6186248;23;20498;-87
2023/05/04 09:02:12;;;;;;;12.50;4.95;;;15.30;94.10;;;;;;6186119;23;20075;-88
2023/05/04 09:05:00;;;;;;;7.93;4.43;;;;;;;;;;6186146;23;20047;-88
2023/05/04 09:07:47;;;;;;;6.35;4.43;;;;;;;;;;6185611;23;20023;-88
2023/05/04 09:10:33;;;;;;;10.40;5.00;;;;;;;;;;6162776;23;20155;-89
2023/05/04 09:13:18;;;;;;;9.52;4.85;;;;;;;;;;6185988;23;20095;-88
2023/05/04 09:16:02;;;;;;;9.30;4.82;;;;;;;;;;6185719;23;20016;-88
2023/05/04 09:18:47;;;;;;;12.80;5.70;;;;;;;;;;6162881;23;20446;-89
2023/05/04 09:21:33;;;;;;;8.48;4.60;;;;;;;;;;6162750;23;20023;-88
2023/05/04 09:24:30;;;;;;;12.52;5.25;;;;;;;;;;6163284;23;20329;-88
2023/05/04 09:27:16;;;;;;;13.32;4.75;;;;;;;;;;6163724;23;20096;-88
2023/05/04 09:30:01;;;;;;;9.02;4.57;;;;;;;;;;6163793;23;20012;-90
2023/05/04 09:32:49;;;;;;;10.95;4.68;;;;;;;;;;6163191;23;20036;-88
2023/05/04 09:35:34;;;;;;;9.30;4.63;;;;;;;;;;6184963;23;20024;-89
2023/05/04 09:38:28;;;;;;;9.10;4.55;;;;;;;;;;6163090;23;20446;-88
2023/05/04 09:41:13;;;;;;;6.88;3.80;;;;;;;;;;6185270;23;20090;-89
2023/05/04 09:43:58;;;;;;;8.07;4.25;;;;;;;;;;6163893;23;20051;-88
2023/05/04 09:46:51;;;;;;;14.10;5.85;;;;;;;;;;6142228;23;20019;-89
2023/05/04 09:49:36;;;;;;;6.68;3.83;;;;;;;;;;6185110;23;20123;-90
2023/05/04 09:52:21;;;;;;;9.85;4.00;;;;;;;;;;6163425;23;20016;-88
2023/05/04 09:55:09;;;;;;;8.20;4.50;;;17.40;85.70;;;;;;6142669;23;20104;-89
2023/05/04 09:57:54;;;;;;;10.15;4.05;;;;;;;;;;6184921;23;20032;-89
2023/05/04 10:00:38;;;;;;;5.82;3.72;;;;;;;;;;6162316;23;20096;-89
2023/05/04 10:03:23;;;;;;;8.95;4.10;;;;;;;;;;6185220;23;20063;-89
2023/05/04 10:06:09;;;;;;;10.30;3.90;;;;;;;;;;6185317;23;20016;-89
2023/05/04 10:08:55;;;;;;;7.85;3.88;;;;;;;;;;6163968;23;20024;-88
2023/05/04 10:11:39;;;;;;;5.65;3.60;;;;;;;;;;6162551;23;20020;-89
2023/05/04 10:14:24;;;;;;;7.30;4.15;;;;;;;;;;6142378;23;20078;-89
2023/05/04 10:17:12;;;;;;;9.98;4.10;;;;;;;;;;6162802;23;20140;-89
2023/05/04 10:20:09;;;;;;;10.70;4.47;;;;;;;;;;6162437;23;20016;-89
2023/05/04 10:23:12;;;;;;;9.02;4.15;;;;;;;;;;6185071;23;20011;-89
2023/05/04 10:26:06;;;;;;;5.03;3.53;;;;;;;;;;6162556;23;20012;-89
2023/05/04 10:28:52;;;;;;;5.60;3.33;;;;;;;;;;6162606;23;20446;-89
2023/05/04 10:31:41;;;;;;;7.95;3.92;;;;;;;;;;6185071;23;20071;-89
2023/05/04 10:34:27;;;;;;;9.80;4.55;;;;;;;;;;6163268;23;20019;-88
2023/05/04 10:37:16;;;;;;;6.00;3.95;;;;;;;;;;6185239;23;20023;-89
2023/05/04 10:40:07;;;;;;;7.45;4.15;;;;;;;;;;6184840;23;20458;-89
2023/05/04 10:43:33;;;;;;;8.02;4.18;;;;;;;;;;6184663;23;20064;-88
2023/05/04 10:46:21;;;;;;;9.18;3.95;;;;;;;;;;6184970;23;20020;-89
2023/05/04 10:49:15;;;;;;;10.02;4.10;;;;;;;;;;6162312;23;20067;-89
2023/05/04 10:52:35;;;;;;;9.40;4.13;;;;;;;;;;6184696;23;20136;-89
2023/05/04 10:55:23;;;;;;;7.85;3.83;;;;;;;;;;6126249;23;20039;-89
2023/05/04 10:58:09;;;;;;;7.30;4.05;;;;;;;;;;6142466;23;20068;-88
2023/05/04 11:00:56;;;;;;;9.80;4.25;;;;;;;;;;6162281;23;20063;-88
2023/05/04 11:03:41;;;;;;;9.20;4.03;;;;;;;;;;6162709;23;20059;-89
2023/05/04 11:06:26;;;;;;;8.65;4.10;;;;;;;;;;6161683;23;20016;-89
2023/05/04 11:09:13;;;;;;;8.60;4.20;;;;;;;;;;6161478;23;20068;-89
2023/05/04 11:11:58;;;;;;;7.50;3.75;;;;;;;;;;6161790;23;20458;-89
2023/05/04 11:14:42;;;;;;;10.63;4.47;;;;;;;;;;6184514;23;20055;-89
2023/05/04 11:17:27;;;;;;;7.43;3.83;;;;;;;;;;6162927;23;20016;-89
2023/05/04 11:20:19;;;;;;;8.48;4.22;;;;;;;;;;6185067;23;20092;-89
2023/05/04 11:23:07;;;;;;;8.27;4.00;;;;;;;;;;6162017;23;20110;-89
2023/05/04 11:25:52;;;;;;;9.63;4.47;;;;;;;;;;6162650;23;20016;-88
2023/05/04 11:28:38;;;;;;;13.60;4.53;;;;;;;;;;6184578;23;20016;-89
2023/05/04 11:31:23;;;;;;;8.98;3.80;;;;;;;;;;6162725;23;20024;-88
2023/05/04 11:34:08;;;;;;;8.70;4.30;;;;;;;;;;6162454;23;20016;-87
2023/05/04 11:36:58;;;;;;;9.60;3.88;;;;;;;;;;6186842;23;20026;-87
2023/05/04 11:39:42;;;;;;;8.98;3.80;;;;;;;;;;6162605;23;20437;-87
2023/05/04 11:42:27;;;;;;;9.43;4.50;;;;;;;;;;6162048;23;20096;-87
2023/05/04 11:45:12;;;;;;;9.98;4.38;;;;;;;;;;6161341;23;20443;-85
2023/05/04 11:47:57;;;;;;;6.78;3.83;;;;;;;;;;6161608;23;20459;-85
2023/05/04 11:50:49;;;;;;;8.60;3.97;;;;;;;;;;6163030;23;20105;-86
2023/05/04 11:53:37;;;;;;;7.95;3.40;;;;;;;;;;6187442;23;20055;-89
2023/05/04 11:56:22;;;;;;;4.68;3.05;;;;;;;;;;6184593;23;20069;-84
2023/05/04 11:59:07;;;;;;;6.68;3.42;;;;;;;;;;6161577;23;20071;-87
2023/05/04 12:01:52;;;;;;;7.18;3.42;;;;;;;;;;6184002;23;20048;-86
2023/05/04 12:04:37;;;;;;;6.93;3.25;;;;;;;;;;6161950;23;20021;-86
2023/05/04 12:07:22;;;;;;;8.77;3.80;;;;;;;;;;6162309;23;20096;-87
2023/05/04 12:10:07;;;;;;;8.20;3.78;;;;;;;;;;6161746;23;20083;-87
2023/05/04 12:12:52;;;;;;;7.22;3.60;;;;;;;;;;6162206;23;20032;-87
2023/05/04 12:15:36;;;;;;;11.32;4.07;;;;;;;;;;6141545;23;20534;-88
2023/05/04 12:18:28;;;;;;;7.95;3.78;;;;;;;;;;6162521;23;20062;-88
2023/05/04 12:21:14;;;;;;;7.30;3.38;;;20.60;57.90;;;;;;6142626;23;20028;-86
2023/05/04 12:23:59;;;;;;;6.45;3.30;;;;;;;;;;6185712;23;20016;-88
2023/05/04 12:26:43;;;;;;;6.55;3.35;;;;;;;;;;6186136;23;20028;-87
2023/05/04 12:29:30;;;;;;;7.82;3.30;;;;;;;;;;6164202;23;20020;-87
2023/05/04 12:32:15;;;;;;;9.43;4.00;;;;;;;;;;6186010;23;20024;-87
2023/05/04 12:35:02;;;;;;;9.55;3.65;;;;;;;;;;6163636;23;20100;-88
2023/05/04 12:37:47;;;;;;;7.40;3.38;;;;;;;;;;6186279;23;20028;-88
2023/05/04 12:40:32;;;;;;;5.75;3.00;;;;;;;;;;6186602;23;20063;-89
2023/05/04 12:43:18;;;;;;;7.70;3.15;;;;;;;;;;6164008;23;20061;-88
2023/05/04 12:46:03;;;;;;;9.25;4.68;;;;;;;;;;6186964;23;20445;-88
2023/05/04 12:48:47;;;;;;;7.57;3.40;;;;;;;;;;6144181;23;20020;-89
2023/05/04 12:51:34;;;;;;;6.93;2.90;;;;;;;;;;6165293;23;20024;-92
2023/05/04 12:54:22;;;;;;;6.40;2.83;;;;;;;;;;6163416;23;20059;-88
2023/05/04 12:57:07;;;;;;;6.65;2.90;;;;;;;;;;6185682;23;20015;-88
2023/05/04 12:59:54;;;;;;;11.07;3.60;;;;;;;;;;6186149;23;20016;-88
2023/05/04 13:02:44;;;;;;;5.93;2.72;;;;;;;;;;6163742;23;20063;-88
2023/05/04 13:05:29;;;;;;;6.72;2.75;;;;;;;;;;6163902;23;20071;-88
2023/05/04 13:08:18;;;;;;;5.15;2.78;;;;;;;;;;6185547;23;20027;-88
2023/05/04 13:11:06;;;;;;;5.65;2.72;;;;;;;;;;6186150;23;20063;-89
2023/05/04 13:13:57;;;;;;;8.25;2.90;;;21.80;52.50;;;;;;6188067;23;20091;-92
2023/05/04 13:16:42;;;;;;;6.60;3.17;;;;;;;;;;6187415;23;20059;-89
2023/05/04 13:19:27;;;;;;;6.28;2.70;;;;;;;;;;6163554;23;20020;-87
2023/05/04 13:22:15;;;;;;;5.60;2.75;;;;;;;;;;6142674;23;20132;-87
2023/05/04 13:25:03;;;;;;;8.98;2.85;;;;;;;;;;6185569;23;20012;-87
2023/05/04 13:27:47;;;;;;;6.18;2.53;;;;;;;;;;6163353;23;20055;-86
2023/05/04 13:30:32;;;;;;;8.82;2.60;;;;;;;;;;6142948;23;20024;-88
2023/05/04 13:33:16;;;;;;;5.20;2.90;;;;;;;;;;6142036;23;20016;-88
2023/05/04 13:36:01;;;;;;;8.57;2.80;;;;;;;;;;6163646;23;20016;-88
2023/05/04 13:38:46;;;;;;;6.22;2.40;;;;;;;;;;6143869;23;20028;-89
2023/05/04 13:41:31;;;;;;;8.73;2.85;;;;;;;;;;6186439;23;20336;-89
2023/05/04 13:44:15;;;;;;;8.98;2.88;;;;;;;;;;6163321;23;20020;-90
2023/05/04 13:47:02;;;;;;;6.93;2.88;;;;;;;;;;6163516;23;20027;-90
2023/05/04 13:49:47;;;;;;;6.95;3.13;;;;;;;;;;6186073;23;20059;-90
2023/05/04 13:52:32;;;;;;;11.35;3.40;;;;;;;;;;6164145;23;20020;-87
2023/05/04 13:55:18;;;;;;;6.10;2.97;;;;;;;;;;6163370;23;20015;-89
2023/05/04 13:58:03;;;;;;;6.10;2.65;;;;;;;;;;6163722;23;20409;-89
2023/05/04 14:00:48;;;;;;;7.78;3.00;;;;;;;;;;6186418;23;20059;-89
2023/05/04 14:03:34;;;;;;;10.20;3.50;;;;;;;;;;6164457;23;20035;-88
2023/05/04 14:06:22;;;;;;;5.90;3.20;;;;;;;;;;6187531;23;20012;-90
2023/05/04 14:09:08;;;;;;;5.35;3.25;;;;;;;;;;6187168;23;20019;-91
2023/05/04 14:11:53;;;;;;;8.88;2.90;;;;;;;;;;6164311;23;20084;-89
2023/05/04 14:14:37;;;;;;;9.73;3.15;;;;;;;;;;6163500;23;20019;-90
2023/05/04 14:17:22;;;;;;;8.95;3.55;;;;;;;;;;6163404;23;20020;-90
2023/05/04 14:20:07;;;;;;;7.90;3.47;;;;;;;;;;6187791;23;20016;-89
2023/05/04 14:22:52;;;;;;;9.80;3.92;;;;;;;;;;6165351;23;20016;-89
2023/05/04 14:25:37;;;;;;;6.57;3.38;;;;;;;;;;6164780;23;20059;-89
2023/05/04 14:28:29;;;;;;;7.60;3.30;;;;;;;;;;6164115;23;20020;-88
2023/05/04 14:31:14;;;;;;;9.85;3.50;;;;;;;;;;6185464;23;20067;-88
2023/05/04 14:33:59;;;;;;;7.88;3.83;;;;;;;;;;6142403;23;20016;-89
2023/05/04 14:36:46;;;;;;;9.30;3.65;;;;;;;;;;6185229;23;20052;-89
2023/05/04 14:39:31;;;;;;;7.20;3.42;;;;;;;;;;6142609;23;20016;-90
2023/05/04 14:42:16;;;;;;;6.30;3.70;;;;;;;;;;6162481;23;20064;-88
2023/05/04 14:45:01;;;;;;;7.97;3.67;;;;;;;;;;6142303;23;20088;-88
2023/05/04 14:47:46;;;;;;;8.32;3.67;;;;;;;;;;6185391;23;20019;-88
2023/05/04 14:50:30;;;;;;;8.63;3.67;;;;;;;;;;6162235;23;20017;-88
2023/05/04 14:53:20;;;;;;;4.72;3.20;;;;;;;;;;6162661;23;20019;-87
2023/05/04 14:56:05;;;;;;;9.05;3.00;;;;;;;;;;6162956;23;20019;-89
2023/05/04 14:58:52;;;;;;;13.90;3.58;;;;;;;;;;6185183;23;20096;-90
2023/05/04 15:01:37;;;;;;;6.28;3.35;;;;;;;;;;6162348;23;20514;-89
2023/05/04 15:04:22;;;;;;;9.73;3.75;;;;;;;;;;6162163;23;20078;-86
2023/05/04 15:07:07;;;;;;;7.15;3.17;;;;;;;;;;6185475;23;20016;-88
2023/05/04 15:09:52;;;;;;;7.15;3.50;;;;;;;;;;6162739;23;20540;-90
2023/05/04 15:12:39;;;;;;;7.53;3.05;;;;;;;;;;6162274;23;20028;-89
2023/05/04 15:15:24;;;;;;;6.45;2.90;;;;;;;;;;6162380;23;20435;-90
2023/05/04 15:18:15;;;;;;;6.68;3.53;;;;;;;;;;6184878;23;20067;-88
2023/05/04 15:21:00;;;;;;;7.03;3.45;;;;;;;;;;6162571;23;20066;-87
2023/05/04 15:24:04;;;;;;;8.90;3.40;;;;;;;;;;6141828;23;20015;-88
2023/05/04 15:26:49;;;;;;;7.72;3.15;;;;;;;;;;6184875;23;20059;-88
2023/05/04 15:29:34;;;;;;;10.98;3.70;;;;;;;;;;6162146;23;20081;-89
2023/05/04 15:32:18;;;;;;;9.65;4.05;;;;;;;;;;6184334;23;20051;-89
2023/05/04 15:35:04;;;;;;;8.52;3.47;;;;;;;;;;6184290;23;20060;-89
2023/05/04 15:37:48;;;;;;;6.00;3.55;;;;;;;;;;6188103;23;20448;-90
2023/05/04 15:40:33;;;;;;;9.35;4.25;;;;;;;;;;6185092;23;20020;-91
2023/05/04 15:43:21;;;;;;;7.82;3.22;;;;;;;;;;6162363;23;20101;-91
2023/05/04 15:46:05;;;;;;;5.65;3.38;;;;;;;;;;6140440;23;20024;-85
2023/05/04 15:48:50;;;;;;;5.97;3.45;;;;;;;;;;6184060;23;20443;-86
2023/05/04 15:51:40;;;;;;;8.55;4.38;;;;;;;;;;6161711;23;20020;-88
2023/05/04 15:54:25;;;;;;;7.13;3.80;;;;;;;;;;6141381;23;20016;-84
2023/05/04 15:57:20;;;;;;;11.55;5.55;;;;;;;;;;6162995;23;20340;-93
2023/05/04 16:00:06;;;;;;;12.57;4.18;;;;;;;;;;6187133;23;20031;-92
2023/05/04 16:02:50;;;;;;;7.45;3.25;;;;;;;;;;6165225;23;20044;-93
2023/05/04 16:05:37;;;;;;;7.18;3.97;;;;;;;;;;6164809;23;20035;-91
2023/05/04 16:08:22;;;;;;;8.70;3.90;;;;;;;;;;6186820;23;20486;-89
2023/05/04 16:11:07;;;;;;;8.25;3.72;;;;;;;;;;6164572;23;20459;-87
2023/05/04 16:13:52;;;;;;;8.45;3.95;;;;;;;;;;6187203;23;20016;-91
2023/05/04 16:16:43;;;;;;;10.40;4.85;;;;;;;;;;6163906;23;20375;-94
2023/05/04 16:19:31;;;;;;;12.93;7.18;;;;;;;;;;6186278;23;20051;-90
2023/05/04 16:22:19;;;;;;;7.72;3.88;;;;;;;;;;6164463;23;20035;-87
2023/05/04 16:25:04;;;;;;;8.90;3.70;;;;;;;;;;6164454;23;20091;-90